sensor_id;sensor_type;location;lat;lon;timestamp;P1;durP1;ratioP1;P2;durP2;ratioP2
84144;SDS011;74264;48.988;12.040;2023-11-19T00:00:31;2.85;;;2.65;;
84144;SDS011;74264;48.988;12.040;2023-11-19T00:02:56;2.45;;;2.25;;
84144;SDS011;74264;48.988;12.040;2023-11-19T00:05:22;2.38;;;2.28;;
84144;SDS011;74264;48.988;12.040;2023-11-19T00:07:47;2.95;;;2.42;;
84144;SDS011;74264;48.988;12.040;2023-11-19T00:10:14;2.20;;;2.10;;
84144;SDS011;74264;48.988;12.040;2023-11-19T00:12:47;2.35;;;2.17;;
84144;SDS011;74264;48.988;12.040;2023-11-19T00:15:13;2.22;;;2.13;;
84144;SDS011;74264;48.988;12.040;2023-11-19T00:17:40;2.33;;;2.22;;
84144;SDS011;74264;48.988;12.040;2023-11-19T00:20:10;2.33;;;2.10;;
84144;SDS011;74264;48.988;12.040;2023-11-19T00:22:43;1.98;;;1.83;;
84144;SDS011;74264;48.988;12.040;2023-11-19T00:25:11;2.72;;;2.40;;
84144;SDS011;74264;48.988;12.040;2023-11-19T00:27:36;4.22;;;2.60;;
84144;SDS011;74264;48.988;12.040;2023-11-19T00:30:05;3.63;;;2.65;;
84144;SDS011;74264;48.988;12.040;2023-11-19T00:32:32;2.38;;;2.28;;
84144;SDS011;74264;48.988;12.040;2023-11-19T00:34:59;2.90;;;2.70;;
84144;SDS011;74264;48.988;12.040;2023-11-19T00:37:25;2.58;;;2.38;;
84144;SDS011;74264;48.988;12.040;2023-11-19T00:39:51;2.20;;;2.10;;
84144;SDS011;74264;48.988;12.040;2023-11-19T00:42:17;2.08;;;1.98;;
84144;SDS011;74264;48.988;12.040;2023-11-19T00:44:43;1.90;;;1.80;;
84144;SDS011;74264;48.988;12.040;2023-11-19T00:47:08;3.55;;;2.50;;
84144;SDS011;74264;48.988;12.040;2023-11-19T00:49:34;2.40;;;2.13;;
84144;SDS011;74264;48.988;12.040;2023-11-19T00:52:00;2.60;;;2.40;;
84144;SDS011;74264;48.988;12.040;2023-11-19T00:54:27;2.83;;;2.63;;
84144;SDS011;74264;48.988;12.040;2023-11-19T00:56:53;2.97;;;2.20;;
84144;SDS011;74264;48.988;12.040;2023-11-19T00:59:18;2.83;;;2.63;;
84144;SDS011;74264;48.988;12.040;2023-11-19T01:01:44;2.92;;;2.72;;
84144;SDS011;74264;48.988;12.040;2023-11-19T01:04:10;2.70;;;2.50;;
84144;SDS011;74264;48.988;12.040;2023-11-19T01:06:36;2.55;;;2.45;;
84144;SDS011;74264;48.988;12.040;2023-11-19T01:09:02;6.25;;;2.22;;
84144;SDS011;74264;48.988;12.040;2023-11-19T01:11:27;2.72;;;2.53;;
84144;SDS011;74264;48.988;12.040;2023-11-19T01:13:53;2.45;;;2.35;;
84144;SDS011;74264;48.988;12.040;2023-11-19T01:16:19;2.40;;;2.30;;
84144;SDS011;74264;48.988;12.040;2023-11-19T01:18:46;4.28;;;2.50;;
84144;SDS011;74264;48.988;12.040;2023-11-19T01:21:12;2.55;;;2.35;;
84144;SDS011;74264;48.988;12.040;2023-11-19T01:23:40;2.70;;;2.50;;
84144;SDS011;74264;48.988;12.040;2023-11-19T01:26:09;2.33;;;2.22;;
84144;SDS011;74264;48.988;12.040;2023-11-19T01:28:38;2.38;;;2.22;;
84144;SDS011;74264;48.988;12.040;2023-11-19T01:31:16;2.30;;;2.20;;
84144;SDS011;74264;48.988;12.040;2023-11-19T01:33:42;2.42;;;2.28;;
84144;SDS011;74264;48.988;12.040;2023-11-19T01:36:08;2.10;;;2.00;;
84144;SDS011;74264;48.988;12.040;2023-11-19T01:38:34;1.88;;;1.77;;
84144;SDS011;74264;48.988;12.040;2023-11-19T01:41:01;2.40;;;2.25;;
84144;SDS011;74264;48.988;12.040;2023-11-19T01:43:40;1.90;;;1.80;;
84144;SDS011;74264;48.988;12.040;2023-11-19T01:46:12;2.20;;;2.10;;
84144;SDS011;74264;48.988;12.040;2023-11-19T01:48:42;2.03;;;1.73;;
84144;SDS011;74264;48.988;12.040;2023-11-19T01:51:11;1.77;;;1.67;;
84144;SDS011;74264;48.988;12.040;2023-11-19T01:53:38;2.20;;;2.10;;
84144;SDS011;74264;48.988;12.040;2023-11-19T01:56:08;2.10;;;2.00;;
84144;SDS011;74264;48.988;12.040;2023-11-19T01:58:37;1.95;;;1.85;;
84144;SDS011;74264;48.988;12.040;2023-11-19T02:01:07;1.58;;;1.52;;
84144;SDS011;74264;48.988;12.040;2023-11-19T02:03:34;2.97;;;1.63;;
84144;SDS011;74264;48.988;12.040;2023-11-19T02:06:00;1.50;;;1.40;;
84144;SDS011;74264;48.988;12.040;2023-11-19T02:08:26;2.20;;;2.00;;
84144;SDS011;74264;48.988;12.040;2023-11-19T02:10:52;1.70;;;1.60;;
84144;SDS011;74264;48.988;12.040;2023-11-19T02:13:20;1.70;;;1.60;;
84144;SDS011;74264;48.988;12.040;2023-11-19T02:15:46;1.75;;;1.65;;
84144;SDS011;74264;48.988;12.040;2023-11-19T02:18:22;1.92;;;1.83;;
84144;SDS011;74264;48.988;12.040;2023-11-19T02:20:56;2.13;;;2.00;;
84144;SDS011;74264;48.988;12.040;2023-11-19T02:23:23;1.50;;;1.48;;
84144;SDS011;74264;48.988;12.040;2023-11-19T02:26:33;2.08;;;1.98;;
84144;SDS011;74264;48.988;12.040;2023-11-19T02:28:58;1.38;;;1.38;;
84144;SDS011;74264;48.988;12.040;2023-11-19T02:31:24;2.13;;;2.03;;
84144;SDS011;74264;48.988;12.040;2023-11-19T02:33:52;1.58;;;1.50;;
84144;SDS011;74264;48.988;12.040;2023-11-19T02:36:18;1.80;;;1.70;;
84144;SDS011;74264;48.988;12.040;2023-11-19T02:38:43;1.80;;;1.70;;
84144;SDS011;74264;48.988;12.040;2023-11-19T02:41:09;2.13;;;2.03;;
84144;SDS011;74264;48.988;12.040;2023-11-19T02:43:36;1.38;;;1.38;;
84144;SDS011;74264;48.988;12.040;2023-11-19T02:46:03;1.95;;;1.85;;
84144;SDS011;74264;48.988;12.040;2023-11-19T02:48:36;1.40;;;1.40;;
84144;SDS011;74264;48.988;12.040;2023-11-19T02:51:02;1.65;;;1.55;;
84144;SDS011;74264;48.988;12.040;2023-11-19T02:53:29;1.60;;;1.52;;
84144;SDS011;74264;48.988;12.040;2023-11-19T02:55:55;1.58;;;1.58;;
84144;SDS011;74264;48.988;12.040;2023-11-19T02:58:27;1.23;;;1.23;;
84144;SDS011;74264;48.988;12.040;2023-11-19T03:00:54;1.35;;;1.35;;
84144;SDS011;74264;48.988;12.040;2023-11-19T03:03:26;1.40;;;1.30;;
84144;SDS011;74264;48.988;12.040;2023-11-19T03:06:06;1.27;;;1.27;;
84144;SDS011;74264;48.988;12.040;2023-11-19T03:08:32;1.25;;;1.25;;
84144;SDS011;74264;48.988;12.040;2023-11-19T03:11:00;1.80;;;1.70;;
84144;SDS011;74264;48.988;12.040;2023-11-19T03:13:25;1.15;;;1.15;;
84144;SDS011;74264;48.988;12.040;2023-11-19T03:15:52;1.00;;;1.00;;
84144;SDS011;74264;48.988;12.040;2023-11-19T03:18:19;1.30;;;1.30;;
84144;SDS011;74264;48.988;12.040;2023-11-19T03:20:46;1.55;;;1.45;;
84144;SDS011;74264;48.988;12.040;2023-11-19T03:23:13;1.77;;;1.67;;
84144;SDS011;74264;48.988;12.040;2023-11-19T03:25:38;1.58;;;1.48;;
84144;SDS011;74264;48.988;12.040;2023-11-19T03:28:04;4.32;;;1.42;;
84144;SDS011;74264;48.988;12.040;2023-11-19T03:30:30;1.30;;;1.20;;
84144;SDS011;74264;48.988;12.040;2023-11-19T03:32:57;2.83;;;1.25;;
84144;SDS011;74264;48.988;12.040;2023-11-19T03:35:23;1.60;;;1.50;;
84144;SDS011;74264;48.988;12.040;2023-11-19T03:37:49;1.63;;;1.50;;
84144;SDS011;74264;48.988;12.040;2023-11-19T03:40:16;1.02;;;1.02;;
84144;SDS011;74264;48.988;12.040;2023-11-19T03:42:45;2.90;;;1.23;;
84144;SDS011;74264;48.988;12.040;2023-11-19T03:45:11;1.10;;;1.10;;
84144;SDS011;74264;48.988;12.040;2023-11-19T03:47:37;1.13;;;1.13;;
84144;SDS011;74264;48.988;12.040;2023-11-19T03:50:03;1.00;;;1.00;;
84144;SDS011;74264;48.988;12.040;2023-11-19T03:52:29;0.88;;;0.88;;
84144;SDS011;74264;48.988;12.040;2023-11-19T03:54:55;1.13;;;1.13;;
84144;SDS011;74264;48.988;12.040;2023-11-19T03:57:22;1.60;;;1.50;;
84144;SDS011;74264;48.988;12.040;2023-11-19T03:59:48;1.20;;;1.20;;
84144;SDS011;74264;48.988;12.040;2023-11-19T04:02:14;1.63;;;1.52;;
84144;SDS011;74264;48.988;12.040;2023-11-19T04:04:40;1.48;;;1.38;;
84144;SDS011;74264;48.988;12.040;2023-11-19T04:07:06;1.83;;;1.73;;
84144;SDS011;74264;48.988;12.040;2023-11-19T04:09:31;1.60;;;1.50;;
84144;SDS011;74264;48.988;12.040;2023-11-19T04:12:02;2.00;;;1.90;;
84144;SDS011;74264;48.988;12.040;2023-11-19T04:14:29;1.50;;;1.40;;
84144;SDS011;74264;48.988;12.040;2023-11-19T04:16:54;1.48;;;1.02;;
84144;SDS011;74264;48.988;12.040;2023-11-19T04:19:20;1.05;;;1.05;;
84144;SDS011;74264;48.988;12.040;2023-11-19T04:21:46;1.30;;;1.20;;
84144;SDS011;74264;48.988;12.040;2023-11-19T04:24:12;1.00;;;1.00;;
84144;SDS011;74264;48.988;12.040;2023-11-19T04:26:43;1.10;;;1.10;;
84144;SDS011;74264;48.988;12.040;2023-11-19T04:29:13;0.95;;;0.95;;
84144;SDS011;74264;48.988;12.040;2023-11-19T04:31:40;4.63;;;1.00;;
84144;SDS011;74264;48.988;12.040;2023-11-19T04:34:06;1.27;;;1.17;;
84144;SDS011;74264;48.988;12.040;2023-11-19T04:36:32;0.75;;;0.75;;
84144;SDS011;74264;48.988;12.040;2023-11-19T04:38:59;1.00;;;1.00;;
84144;SDS011;74264;48.988;12.040;2023-11-19T04:41:26;0.80;;;0.80;;
84144;SDS011;74264;48.988;12.040;2023-11-19T04:43:54;1.40;;;0.98;;
84144;SDS011;74264;48.988;12.040;2023-11-19T04:46:20;0.90;;;0.90;;
84144;SDS011;74264;48.988;12.040;2023-11-19T04:48:46;1.00;;;1.00;;
84144;SDS011;74264;48.988;12.040;2023-11-19T04:51:11;1.08;;;1.08;;
84144;SDS011;74264;48.988;12.040;2023-11-19T04:53:37;0.57;;;0.57;;
84144;SDS011;74264;48.988;12.040;2023-11-19T04:56:09;1.20;;;1.20;;
84144;SDS011;74264;48.988;12.040;2023-11-19T04:58:41;0.90;;;0.90;;
84144;SDS011;74264;48.988;12.040;2023-11-19T05:01:12;1.25;;;1.25;;
84144;SDS011;74264;48.988;12.040;2023-11-19T05:03:39;1.15;;;1.15;;
84144;SDS011;74264;48.988;12.040;2023-11-19T05:06:05;1.30;;;1.30;;
84144;SDS011;74264;48.988;12.040;2023-11-19T05:08:31;1.17;;;1.17;;
84144;SDS011;74264;48.988;12.040;2023-11-19T05:10:57;1.13;;;1.10;;
84144;SDS011;74264;48.988;12.040;2023-11-19T05:13:22;0.60;;;0.60;;
84144;SDS011;74264;48.988;12.040;2023-11-19T05:15:48;2.17;;;1.00;;
84144;SDS011;74264;48.988;12.040;2023-11-19T05:18:14;1.00;;;1.00;;
84144;SDS011;74264;48.988;12.040;2023-11-19T05:20:39;0.82;;;0.82;;
84144;SDS011;74264;48.988;12.040;2023-11-19T05:23:05;0.93;;;0.93;;
84144;SDS011;74264;48.988;12.040;2023-11-19T05:25:33;2.63;;;1.30;;
84144;SDS011;74264;48.988;12.040;2023-11-19T05:27:59;1.00;;;1.00;;
84144;SDS011;74264;48.988;12.040;2023-11-19T05:30:25;1.20;;;1.20;;
84144;SDS011;74264;48.988;12.040;2023-11-19T05:32:51;1.25;;;1.23;;
84144;SDS011;74264;48.988;12.040;2023-11-19T05:35:16;1.33;;;1.33;;
84144;SDS011;74264;48.988;12.040;2023-11-19T05:37:42;1.80;;;1.65;;
84144;SDS011;74264;48.988;12.040;2023-11-19T05:40:08;2.05;;;1.95;;
84144;SDS011;74264;48.988;12.040;2023-11-19T05:42:42;1.90;;;1.80;;
84144;SDS011;74264;48.988;12.040;2023-11-19T05:45:10;1.42;;;1.33;;
84144;SDS011;74264;48.988;12.040;2023-11-19T05:47:36;1.60;;;1.60;;
84144;SDS011;74264;48.988;12.040;2023-11-19T05:50:02;2.58;;;2.38;;
84144;SDS011;74264;48.988;12.040;2023-11-19T05:52:29;2.55;;;1.73;;
84144;SDS011;74264;48.988;12.040;2023-11-19T05:54:59;1.90;;;1.80;;
84144;SDS011;74264;48.988;12.040;2023-11-19T05:57:29;1.83;;;1.73;;
84144;SDS011;74264;48.988;12.040;2023-11-19T05:59:54;2.17;;;2.08;;
84144;SDS011;74264;48.988;12.040;2023-11-19T06:02:20;2.15;;;2.05;;
84144;SDS011;74264;48.988;12.040;2023-11-19T06:04:45;2.53;;;2.30;;
84144;SDS011;74264;48.988;12.040;2023-11-19T06:07:13;2.22;;;2.13;;
84144;SDS011;74264;48.988;12.040;2023-11-19T06:09:40;2.63;;;2.42;;
84144;SDS011;74264;48.988;12.040;2023-11-19T06:12:06;2.65;;;2.55;;
84144;SDS011;74264;48.988;12.040;2023-11-19T06:14:32;2.65;;;2.55;;
84144;SDS011;74264;48.988;12.040;2023-11-19T06:16:58;3.60;;;3.40;;
84144;SDS011;74264;48.988;12.040;2023-11-19T06:19:23;3.03;;;2.83;;
84144;SDS011;74264;48.988;12.040;2023-11-19T06:21:50;3.75;;;3.50;;
84144;SDS011;74264;48.988;12.040;2023-11-19T06:24:16;4.38;;;4.07;;
84144;SDS011;74264;48.988;12.040;2023-11-19T06:26:41;4.57;;;4.28;;
84144;SDS011;74264;48.988;12.040;2023-11-19T06:29:07;6.97;;;4.90;;
84144;SDS011;74264;48.988;12.040;2023-11-19T06:31:32;5.18;;;4.78;;
84144;SDS011;74264;48.988;12.040;2023-11-19T06:33:58;6.82;;;6.22;;
84144;SDS011;74264;48.988;12.040;2023-11-19T06:36:24;6.78;;;6.13;;
84144;SDS011;74264;48.988;12.040;2023-11-19T06:38:49;12.02;;;8.82;;
84144;SDS011;74264;48.988;12.040;2023-11-19T06:41:15;8.40;;;7.20;;
84144;SDS011;74264;48.988;12.040;2023-11-19T06:43:41;8.70;;;7.57;;
84144;SDS011;74264;48.988;12.040;2023-11-19T06:46:14;13.98;;;9.68;;
84144;SDS011;74264;48.988;12.040;2023-11-19T06:48:40;8.57;;;7.68;;
84144;SDS011;74264;48.988;12.040;2023-11-19T06:51:05;11.07;;;8.18;;
84144;SDS011;74264;48.988;12.040;2023-11-19T06:53:31;19.02;;;9.95;;
84144;SDS011;74264;48.988;12.040;2023-11-19T06:55:56;11.55;;;8.43;;
84144;SDS011;74264;48.988;12.040;2023-11-19T06:58:22;11.43;;;8.48;;
84144;SDS011;74264;48.988;12.040;2023-11-19T07:00:48;9.90;;;7.85;;
84144;SDS011;74264;48.988;12.040;2023-11-19T07:03:14;8.27;;;7.03;;
84144;SDS011;74264;48.988;12.040;2023-11-19T07:05:43;7.68;;;6.30;;
84144;SDS011;74264;48.988;12.040;2023-11-19T07:08:09;6.18;;;5.57;;
84144;SDS011;74264;48.988;12.040;2023-11-19T07:10:34;6.65;;;5.50;;
84144;SDS011;74264;48.988;12.040;2023-11-19T07:13:00;6.15;;;5.65;;
84144;SDS011;74264;48.988;12.040;2023-11-19T07:15:25;5.82;;;5.32;;
84144;SDS011;74264;48.988;12.040;2023-11-19T07:17:51;4.45;;;4.10;;
84144;SDS011;74264;48.988;12.040;2023-11-19T07:20:16;4.80;;;4.40;;
84144;SDS011;74264;48.988;12.040;2023-11-19T07:22:43;4.95;;;4.22;;
84144;SDS011;74264;48.988;12.040;2023-11-19T07:25:12;4.85;;;3.85;;
84144;SDS011;74264;48.988;12.040;2023-11-19T07:27:38;3.60;;;3.40;;
84144;SDS011;74264;48.988;12.040;2023-11-19T07:30:05;3.67;;;3.38;;
84144;SDS011;74264;48.988;12.040;2023-11-19T07:32:35;3.35;;;3.15;;
84144;SDS011;74264;48.988;12.040;2023-11-19T07:35:00;3.25;;;3.05;;
84144;SDS011;74264;48.988;12.040;2023-11-19T07:37:27;2.75;;;2.65;;
84144;SDS011;74264;48.988;12.040;2023-11-19T07:39:52;3.50;;;3.30;;
84144;SDS011;74264;48.988;12.040;2023-11-19T07:42:18;3.42;;;3.22;;
84144;SDS011;74264;48.988;12.040;2023-11-19T07:44:44;5.25;;;3.78;;
84144;SDS011;74264;48.988;12.040;2023-11-19T07:47:09;3.47;;;3.28;;
84144;SDS011;74264;48.988;12.040;2023-11-19T07:49:35;5.38;;;4.20;;
84144;SDS011;74264;48.988;12.040;2023-11-19T07:52:01;4.20;;;3.90;;
84144;SDS011;74264;48.988;12.040;2023-11-19T07:54:28;3.42;;;3.22;;
84144;SDS011;74264;48.988;12.040;2023-11-19T07:56:54;4.20;;;3.83;;
84144;SDS011;74264;48.988;12.040;2023-11-19T07:59:19;3.40;;;3.20;;
84144;SDS011;74264;48.988;12.040;2023-11-19T08:01:45;4.57;;;4.18;;
84144;SDS011;74264;48.988;12.040;2023-11-19T08:04:10;4.07;;;3.88;;
84144;SDS011;74264;48.988;12.040;2023-11-19T08:06:36;4.10;;;3.80;;
84144;SDS011;74264;48.988;12.040;2023-11-19T08:09:02;5.43;;;4.93;;
84144;SDS011;74264;48.988;12.040;2023-11-19T08:11:27;3.85;;;3.60;;
84144;SDS011;74264;48.988;12.040;2023-11-19T08:13:53;4.43;;;4.03;;
84144;SDS011;74264;48.988;12.040;2023-11-19T08:16:19;5.07;;;4.63;;
84144;SDS011;74264;48.988;12.040;2023-11-19T08:18:44;6.90;;;5.43;;
84144;SDS011;74264;48.988;12.040;2023-11-19T08:21:10;4.72;;;4.40;;
84144;SDS011;74264;48.988;12.040;2023-11-19T08:23:36;4.80;;;4.50;;
84144;SDS011;74264;48.988;12.040;2023-11-19T08:26:02;5.15;;;4.85;;
84144;SDS011;74264;48.988;12.040;2023-11-19T08:28:28;5.25;;;4.85;;
84144;SDS011;74264;48.988;12.040;2023-11-19T08:30:53;5.50;;;5.00;;
84144;SDS011;74264;48.988;12.040;2023-11-19T08:33:19;5.55;;;5.05;;
84144;SDS011;74264;48.988;12.040;2023-11-19T08:35:47;4.82;;;4.47;;
84144;SDS011;74264;48.988;12.040;2023-11-19T08:38:13;8.23;;;4.90;;
84144;SDS011;74264;48.988;12.040;2023-11-19T08:40:39;5.25;;;4.75;;
84144;SDS011;74264;48.988;12.040;2023-11-19T08:43:04;7.43;;;5.30;;
84144;SDS011;74264;48.988;12.040;2023-11-19T08:45:31;6.03;;;5.53;;
84144;SDS011;74264;48.988;12.040;2023-11-19T08:47:57;5.45;;;4.95;;
84144;SDS011;74264;48.988;12.040;2023-11-19T08:50:23;6.28;;;5.60;;
84144;SDS011;74264;48.988;12.040;2023-11-19T08:52:49;7.38;;;6.70;;
84144;SDS011;74264;48.988;12.040;2023-11-19T08:55:14;6.70;;;6.10;;
84144;SDS011;74264;48.988;12.040;2023-11-19T08:57:40;6.28;;;5.78;;
84144;SDS011;74264;48.988;12.040;2023-11-19T09:00:08;6.25;;;5.65;;
84144;SDS011;74264;48.988;12.040;2023-11-19T09:02:37;6.10;;;5.50;;
84144;SDS011;74264;48.988;12.040;2023-11-19T09:05:03;6.65;;;6.00;;
84144;SDS011;74264;48.988;12.040;2023-11-19T09:07:30;5.28;;;4.88;;
84144;SDS011;74264;48.988;12.040;2023-11-19T09:09:56;6.13;;;5.63;;
84144;SDS011;74264;48.988;12.040;2023-11-19T09:12:22;5.43;;;4.97;;
84144;SDS011;74264;48.988;12.040;2023-11-19T09:14:47;6.05;;;5.32;;
84144;SDS011;74264;48.988;12.040;2023-11-19T09:17:14;6.18;;;5.15;;
84144;SDS011;74264;48.988;12.040;2023-11-19T09:19:43;4.85;;;4.40;;
84144;SDS011;74264;48.988;12.040;2023-11-19T09:22:12;5.45;;;4.93;;
84144;SDS011;74264;48.988;12.040;2023-11-19T09:24:37;7.50;;;5.93;;
84144;SDS011;74264;48.988;12.040;2023-11-19T09:27:03;7.93;;;7.15;;
84144;SDS011;74264;48.988;12.040;2023-11-19T09:29:31;11.50;;;9.82;;
84144;SDS011;74264;48.988;12.040;2023-11-19T09:31:57;8.15;;;6.88;;
84144;SDS011;74264;48.988;12.040;2023-11-19T09:34:22;16.83;;;11.57;;
84144;SDS011;74264;48.988;12.040;2023-11-19T09:36:48;8.20;;;7.40;;
84144;SDS011;74264;48.988;12.040;2023-11-19T09:39:14;6.57;;;5.85;;
84144;SDS011;74264;48.988;12.040;2023-11-19T09:41:40;11.20;;;8.50;;
84144;SDS011;74264;48.988;12.040;2023-11-19T09:44:07;8.02;;;7.22;;
84144;SDS011;74264;48.988;12.040;2023-11-19T09:46:34;7.32;;;6.28;;
84144;SDS011;74264;48.988;12.040;2023-11-19T09:49:05;9.90;;;7.50;;
84144;SDS011;74264;48.988;12.040;2023-11-19T09:51:38;24.08;;;17.70;;
84144;SDS011;74264;48.988;12.040;2023-11-19T09:54:04;8.98;;;6.20;;
84144;SDS011;74264;48.988;12.040;2023-11-19T09:56:30;8.02;;;5.88;;
84144;SDS011;74264;48.988;12.040;2023-11-19T09:59:01;7.72;;;6.93;;
84144;SDS011;74264;48.988;12.040;2023-11-19T10:01:27;10.07;;;7.47;;
84144;SDS011;74264;48.988;12.040;2023-11-19T10:03:53;6.85;;;6.05;;
84144;SDS011;74264;48.988;12.040;2023-11-19T10:06:20;7.30;;;6.10;;
84144;SDS011;74264;48.988;12.040;2023-11-19T10:08:47;7.20;;;6.55;;
84144;SDS011;74264;48.988;12.040;2023-11-19T10:11:12;5.93;;;5.35;;
84144;SDS011;74264;48.988;12.040;2023-11-19T10:13:38;5.85;;;5.32;;
84144;SDS011;74264;48.988;12.040;2023-11-19T10:16:07;5.47;;;5.07;;
84144;SDS011;74264;48.988;12.040;2023-11-19T10:18:34;5.40;;;5.00;;
84144;SDS011;74264;48.988;12.040;2023-11-19T10:21:06;5.88;;;5.38;;
84144;SDS011;74264;48.988;12.040;2023-11-19T10:26:19;4.82;;;4.53;;
84144;SDS011;74264;48.988;12.040;2023-11-19T10:28:46;6.05;;;4.30;;
84144;SDS011;74264;48.988;12.040;2023-11-19T10:31:15;3.72;;;3.42;;
84144;SDS011;74264;48.988;12.040;2023-11-19T10:33:42;3.08;;;2.92;;
84144;SDS011;74264;48.988;12.040;2023-11-19T10:36:10;2.97;;;2.78;;
84144;SDS011;74264;48.988;12.040;2023-11-19T10:38:38;2.70;;;2.60;;
84144;SDS011;74264;48.988;12.040;2023-11-19T10:41:04;2.90;;;2.70;;
84144;SDS011;74264;48.988;12.040;2023-11-19T10:43:43;2.53;;;2.42;;
84144;SDS011;74264;48.988;12.040;2023-11-19T10:46:13;3.38;;;1.92;;
84144;SDS011;74264;48.988;12.040;2023-11-19T10:48:39;2.30;;;2.10;;
84144;SDS011;74264;48.988;12.040;2023-11-19T10:51:06;3.65;;;1.52;;
84144;SDS011;74264;48.988;12.040;2023-11-19T10:53:36;1.52;;;1.42;;
84144;SDS011;74264;48.988;12.040;2023-11-19T10:56:10;3.10;;;1.25;;
84144;SDS011;74264;48.988;12.040;2023-11-19T10:58:37;1.30;;;1.20;;
84144;SDS011;74264;48.988;12.040;2023-11-19T11:01:13;1.92;;;0.98;;
84144;SDS011;74264;48.988;12.040;2023-11-19T11:03:43;1.00;;;1.00;;
84144;SDS011;74264;48.988;12.040;2023-11-19T11:06:11;0.82;;;0.80;;
84144;SDS011;74264;48.988;12.040;2023-11-19T11:08:38;0.70;;;0.70;;
84144;SDS011;74264;48.988;12.040;2023-11-19T11:11:05;0.70;;;0.70;;
84144;SDS011;74264;48.988;12.040;2023-11-19T11:13:31;0.70;;;0.70;;
84144;SDS011;74264;48.988;12.040;2023-11-19T11:15:59;0.65;;;0.60;;
84144;SDS011;74264;48.988;12.040;2023-11-19T11:18:25;1.38;;;0.90;;
84144;SDS011;74264;48.988;12.040;2023-11-19T11:20:52;1.85;;;0.70;;
84144;SDS011;74264;48.988;12.040;2023-11-19T11:28:57;1.20;;;1.20;;
84144;SDS011;74264;48.988;12.040;2023-11-19T11:36:41;2.35;;;0.65;;
84144;SDS011;74264;48.988;12.040;2023-11-19T11:39:20;0.68;;;0.68;;
84144;SDS011;74264;48.988;12.040;2023-11-19T11:41:48;1.83;;;0.80;;
84144;SDS011;74264;48.988;12.040;2023-11-19T11:45:15;0.95;;;0.95;;
84144;SDS011;74264;48.988;12.040;2023-11-19T11:50:13;0.75;;;0.75;;
84144;SDS011;74264;48.988;12.040;2023-11-19T11:57:56;1.00;;;1.00;;
84144;SDS011;74264;48.988;12.040;2023-11-19T12:00:37;1.50;;;1.02;;
84144;SDS011;74264;48.988;12.040;2023-11-19T12:03:06;1.10;;;0.82;;
84144;SDS011;74264;48.988;12.040;2023-11-19T12:05:33;0.60;;;0.60;;
84144;SDS011;74264;48.988;12.040;2023-11-19T12:08:04;1.27;;;0.70;;
84144;SDS011;74264;48.988;12.040;2023-11-19T12:10:33;0.85;;;0.85;;
84144;SDS011;74264;48.988;12.040;2023-11-19T12:13:04;0.52;;;0.52;;
84144;SDS011;74264;48.988;12.040;2023-11-19T12:15:32;1.67;;;1.02;;
84144;SDS011;74264;48.988;12.040;2023-11-19T12:17:58;1.00;;;0.90;;
84144;SDS011;74264;48.988;12.040;2023-11-19T12:20:24;0.77;;;0.77;;
84144;SDS011;74264;48.988;12.040;2023-11-19T12:22:51;0.60;;;0.60;;
84144;SDS011;74264;48.988;12.040;2023-11-19T12:25:17;1.02;;;1.00;;
84144;SDS011;74264;48.988;12.040;2023-11-19T12:27:48;1.77;;;0.80;;
84144;SDS011;74264;48.988;12.040;2023-11-19T12:30:21;0.70;;;0.70;;
84144;SDS011;74264;48.988;12.040;2023-11-19T12:32:48;1.00;;;0.90;;
84144;SDS011;74264;48.988;12.040;2023-11-19T12:35:14;2.25;;;0.68;;
84144;SDS011;74264;48.988;12.040;2023-11-19T12:37:40;1.15;;;1.15;;
84144;SDS011;74264;48.988;12.040;2023-11-19T12:40:14;1.35;;;0.90;;
84144;SDS011;74264;48.988;12.040;2023-11-19T12:42:45;1.00;;;1.00;;
84144;SDS011;74264;48.988;12.040;2023-11-19T12:45:12;1.10;;;1.10;;
84144;SDS011;74264;48.988;12.040;2023-11-19T12:47:39;2.35;;;2.08;;
84144;SDS011;74264;48.988;12.040;2023-11-19T12:50:06;7.93;;;0.77;;
84144;SDS011;74264;48.988;12.040;2023-11-19T12:52:35;0.70;;;0.70;;
84144;SDS011;74264;48.988;12.040;2023-11-19T12:55:05;3.03;;;0.77;;
84144;SDS011;74264;48.988;12.040;2023-11-19T12:57:51;1.17;;;0.68;;
84144;SDS011;74264;48.988;12.040;2023-11-19T13:00:20;1.13;;;0.88;;
84144;SDS011;74264;48.988;12.040;2023-11-19T13:02:49;1.08;;;0.95;;
84144;SDS011;74264;48.988;12.040;2023-11-19T13:08:02;0.95;;;0.88;;
84144;SDS011;74264;48.988;12.040;2023-11-19T13:10:30;1.48;;;0.50;;
84144;SDS011;74264;48.988;12.040;2023-11-19T13:13:15;2.55;;;0.88;;
84144;SDS011;74264;48.988;12.040;2023-11-19T13:15:40;2.85;;;0.70;;
84144;SDS011;74264;48.988;12.040;2023-11-19T13:18:06;1.60;;;0.80;;
84144;SDS011;74264;48.988;12.040;2023-11-19T13:20:32;2.55;;;0.95;;
84144;SDS011;74264;48.988;12.040;2023-11-19T13:22:59;1.05;;;0.82;;
84144;SDS011;74264;48.988;12.040;2023-11-19T13:25:26;1.20;;;0.95;;
84144;SDS011;74264;48.988;12.040;2023-11-19T13:27:52;1.67;;;0.80;;
84144;SDS011;74264;48.988;12.040;2023-11-19T13:30:17;0.77;;;0.77;;
84144;SDS011;74264;48.988;12.040;2023-11-19T13:32:43;0.63;;;0.52;;
84144;SDS011;74264;48.988;12.040;2023-11-19T13:35:12;1.10;;;1.10;;
84144;SDS011;74264;48.988;12.040;2023-11-19T13:37:38;0.98;;;0.70;;
84144;SDS011;74264;48.988;12.040;2023-11-19T13:40:07;5.45;;;2.05;;
84144;SDS011;74264;48.988;12.040;2023-11-19T13:42:38;0.98;;;0.68;;
84144;SDS011;74264;48.988;12.040;2023-11-19T13:45:09;2.08;;;0.70;;
84144;SDS011;74264;48.988;12.040;2023-11-19T13:47:40;1.48;;;1.10;;
84144;SDS011;74264;48.988;12.040;2023-11-19T13:50:09;2.47;;;0.80;;
84144;SDS011;74264;48.988;12.040;2023-11-19T13:52:39;1.65;;;1.10;;
84144;SDS011;74264;48.988;12.040;2023-11-19T13:55:06;2.80;;;0.70;;
84144;SDS011;74264;48.988;12.040;2023-11-19T13:57:34;1.38;;;0.45;;
84144;SDS011;74264;48.988;12.040;2023-11-19T14:00:01;1.33;;;0.70;;
84144;SDS011;74264;48.988;12.040;2023-11-19T14:02:34;1.75;;;0.70;;
84144;SDS011;74264;48.988;12.040;2023-11-19T14:05:00;5.93;;;0.88;;
84144;SDS011;74264;48.988;12.040;2023-11-19T14:07:26;3.72;;;0.70;;
84144;SDS011;74264;48.988;12.040;2023-11-19T14:09:51;0.95;;;0.70;;
84144;SDS011;74264;48.988;12.040;2023-11-19T14:12:17;1.35;;;0.50;;
84144;SDS011;74264;48.988;12.040;2023-11-19T14:14:43;0.63;;;0.60;;
84144;SDS011;74264;48.988;12.040;2023-11-19T14:17:09;0.60;;;0.60;;
84144;SDS011;74264;48.988;12.040;2023-11-19T14:19:36;0.30;;;0.30;;
84144;SDS011;74264;48.988;12.040;2023-11-19T14:22:02;0.93;;;0.52;;
84144;SDS011;74264;48.988;12.040;2023-11-19T14:24:27;1.10;;;0.55;;
84144;SDS011;74264;48.988;12.040;2023-11-19T14:26:53;4.68;;;0.80;;
84144;SDS011;74264;48.988;12.040;2023-11-19T14:29:18;0.50;;;0.50;;
84144;SDS011;74264;48.988;12.040;2023-11-19T14:31:44;2.80;;;0.60;;
84144;SDS011;74264;48.988;12.040;2023-11-19T14:34:10;1.33;;;0.47;;
84144;SDS011;74264;48.988;12.040;2023-11-19T14:36:40;2.00;;;0.70;;
84144;SDS011;74264;48.988;12.040;2023-11-19T14:39:06;0.90;;;0.50;;
84144;SDS011;74264;48.988;12.040;2023-11-19T14:41:32;2.50;;;0.50;;
84144;SDS011;74264;48.988;12.040;2023-11-19T14:43:58;1.70;;;1.00;;
84144;SDS011;74264;48.988;12.040;2023-11-19T14:46:26;0.95;;;0.60;;
84144;SDS011;74264;48.988;12.040;2023-11-19T14:48:52;1.63;;;0.60;;
84144;SDS011;74264;48.988;12.040;2023-11-19T14:51:18;9.45;;;0.77;;
84144;SDS011;74264;48.988;12.040;2023-11-19T14:53:43;3.92;;;2.10;;
84144;SDS011;74264;48.988;12.040;2023-11-19T14:56:12;2.00;;;1.38;;
84144;SDS011;74264;48.988;12.040;2023-11-19T14:58:38;2.67;;;0.93;;